createdAt,value
2018-09-04T00:01:29.538Z,90.70
2018-09-04T00:04:11.520Z,90.90
2018-09-04T00:06:51.963Z,90.90
2018-09-04T00:09:32.395Z,90.90
2018-09-04T00:12:15.699Z,90.90
2018-09-04T00:14:56.086Z,90.80
2018-09-04T00:17:36.596Z,90.60
2018-09-04T00:20:17.181Z,90.50
2018-09-04T00:22:57.563Z,90.50
2018-09-04T00:25:37.915Z,90.90
2018-09-04T00:28:19.580Z,91.10
2018-09-04T00:31:00.968Z,91.20
2018-09-04T00:33:44.478Z,91.30
2018-09-04T00:36:24.980Z,91.40
2018-09-04T00:39:05.853Z,91.50
2018-09-04T00:41:47.314Z,91.50
2018-09-04T00:44:27.867Z,91.80
2018-09-04T00:47:08.419Z,91.50
2018-09-04T00:49:48.880Z,91.70
2018-09-04T00:52:29.425Z,91.70
2018-09-04T00:55:09.828Z,91.70
2018-09-04T00:57:50.229Z,91.70
2018-09-04T01:00:30.726Z,91.70
2018-09-04T01:03:12.608Z,91.50
2018-09-04T01:05:53.087Z,91.40
2018-09-04T01:08:33.697Z,91.50
2018-09-04T01:11:15.319Z,91.60
2018-09-04T01:13:55.883Z,91.40
2018-09-04T01:16:37.125Z,91.30
2018-09-04T01:19:17.767Z,91.20
2018-09-04T01:21:59.226Z,91.20
2018-09-04T01:24:39.860Z,91.30
2018-09-04T01:27:20.249Z,91.20
2018-09-04T01:30:01.225Z,91.20
2018-09-04T01:32:44.621Z,91.20
2018-09-04T01:35:25.159Z,91.10
2018-09-04T01:38:05.652Z,91.30
2018-09-04T01:40:47.331Z,91.20
2018-09-04T01:43:27.903Z,91.10
2018-09-04T01:46:08.448Z,91.10
2018-09-04T01:48:51.235Z,91.50
2018-09-04T01:51:31.693Z,91.60
2018-09-04T01:54:14.559Z,91.60
2018-09-04T01:56:55.655Z,91.60
2018-09-04T01:59:36.089Z,91.30
2018-09-04T02:02:17.336Z,91.40
2018-09-04T02:04:57.872Z,91.50
2018-09-04T02:07:38.588Z,91.50
2018-09-04T02:10:19.188Z,91.50
2018-09-04T02:12:59.800Z,91.40
2018-09-04T02:15:41.291Z,91.70
2018-09-04T02:44:23.453Z,92.00
2018-09-04T02:47:03.859Z,91.90
2018-09-04T02:49:44.441Z,91.90
2018-09-04T02:52:25.296Z,91.90
2018-09-04T02:55:05.768Z,91.70
2018-09-04T02:57:46.300Z,91.40
2018-09-04T03:00:26.870Z,91.60
2018-09-04T03:03:08.014Z,91.50
2018-09-04T03:05:48.566Z,91.40
2018-09-04T03:08:29.079Z,91.40
2018-09-04T03:11:12.536Z,91.50
2018-09-04T03:13:53.131Z,91.50
2018-09-04T03:16:33.755Z,91.70
2018-09-04T03:19:14.239Z,91.80
2018-09-04T03:21:54.725Z,91.80
2018-09-04T03:24:35.238Z,91.90
2018-09-04T03:27:15.792Z,91.80
2018-09-04T03:29:56.337Z,91.90
2018-09-04T03:32:38.065Z,91.90
2018-09-04T03:35:18.692Z,91.90
2018-09-04T03:37:59.257Z,91.90
2018-09-04T03:40:42.356Z,91.80
2018-09-04T03:43:22.985Z,91.70
2018-09-04T03:46:03.591Z,91.70
2018-09-04T03:48:44.156Z,91.70
2018-09-04T03:51:24.630Z,91.70
2018-09-04T03:54:05.244Z,91.70
2018-09-04T03:56:45.828Z,91.80
2018-09-04T03:59:26.321Z,91.80
2018-09-04T04:02:08.470Z,91.80
2018-09-04T04:04:48.951Z,92.00
2018-09-04T04:07:29.287Z,91.90
2018-09-04T04:10:12.432Z,91.90
2018-09-04T04:12:53.041Z,91.90
2018-09-04T04:15:33.839Z,92.00
2018-09-04T04:18:14.248Z,91.90
2018-09-04T04:20:58.751Z,91.80
2018-09-04T04:23:42.558Z,91.70
2018-09-04T04:26:23.098Z,91.80
2018-09-04T04:29:03.629Z,91.90
2018-09-04T04:31:44.185Z,92.00
2018-09-04T04:34:24.527Z,91.90
2018-09-04T04:37:05.093Z,91.90
2018-09-04T04:39:45.466Z,91.90
2018-09-04T04:42:26.113Z,91.80
2018-09-04T04:45:06.505Z,91.90
2018-09-04T04:47:47.884Z,91.80
2018-09-04T04:50:28.476Z,91.80
2018-09-04T04:53:12.236Z,91.70
2018-09-04T04:55:52.844Z,91.70
2018-09-04T04:58:34.291Z,91.70
2018-09-04T05:01:14.765Z,91.70
2018-09-04T05:03:55.192Z,91.70
2018-09-04T05:06:35.760Z,91.70
2018-09-04T05:09:16.255Z,91.70
2018-09-04T05:11:56.840Z,91.70
2018-09-04T05:14:38.608Z,91.70
2018-09-04T05:17:19.957Z,91.70
2018-09-04T05:20:00.667Z,91.60
2018-09-04T05:22:42.374Z,91.70
2018-09-04T05:25:22.744Z,91.60
2018-09-04T05:28:03.286Z,91.50
2018-09-04T05:30:44.032Z,91.50
2018-09-04T05:33:32.852Z,91.40
2018-09-04T05:36:14.852Z,91.40
2018-09-04T05:38:56.260Z,91.40
2018-09-04T05:41:38.501Z,91.20
2018-09-04T05:44:19.395Z,91.00
2018-09-04T05:47:00.272Z,90.90
2018-09-04T05:49:42.851Z,90.90
2018-09-04T05:52:23.485Z,91.20
2018-09-04T05:55:04.248Z,90.80
2018-09-04T05:57:45.137Z,90.90
2018-09-04T06:00:34.742Z,90.90
2018-09-04T06:03:15.316Z,90.90
2018-09-04T06:05:55.879Z,90.90
2018-09-04T06:08:36.468Z,90.80
2018-09-04T06:11:17.182Z,90.90
2018-09-04T06:13:57.561Z,91.00
2018-09-04T06:16:41.308Z,90.90
2018-09-04T06:19:21.686Z,90.90
2018-09-04T06:22:02.483Z,90.90
2018-09-04T06:24:43.985Z,90.60
2018-09-04T06:27:24.418Z,91.00
2018-09-04T06:30:04.944Z,90.80
2018-09-04T06:32:45.463Z,90.80
2018-09-04T06:35:25.993Z,90.70
2018-09-04T06:38:08.426Z,90.80
2018-09-04T06:40:49.304Z,90.60
2018-09-04T06:43:29.744Z,90.40
2018-09-04T06:46:12.408Z,90.50
2018-09-04T06:48:52.987Z,90.40
2018-09-04T06:51:33.711Z,90.40
2018-09-04T06:54:14.288Z,90.10
2018-09-04T06:56:54.769Z,90.00
2018-09-04T06:59:35.408Z,89.40
2018-09-04T07:02:15.921Z,89.60
2018-09-04T07:04:57.307Z,88.30
2018-09-04T07:07:39.375Z,87.10
2018-09-04T07:10:19.935Z,86.40
2018-09-04T07:13:00.596Z,86.30
2018-09-04T07:15:42.729Z,85.70
2018-09-04T07:18:23.165Z,85.30
2018-09-04T07:21:03.531Z,85.60
2018-09-04T07:23:44.178Z,83.70
2018-09-04T07:26:24.781Z,81.80
2018-09-04T07:29:05.260Z,80.00
2018-09-04T07:31:45.763Z,78.90
2018-09-04T07:34:26.318Z,77.50
2018-09-04T07:37:08.433Z,77.10
2018-09-04T07:39:49.057Z,77.60
2018-09-04T07:42:29.642Z,76.10
2018-09-04T07:45:13.261Z,74.80
2018-09-04T07:47:53.681Z,75.30
2018-09-04T07:50:34.352Z,74.20
2018-09-04T07:53:14.664Z,75.90
2018-09-04T07:55:55.262Z,76.40
2018-09-04T07:58:35.612Z,73.60
2018-09-04T08:01:16.361Z,74.90
2018-09-04T08:03:57.463Z,73.80
2018-09-04T08:06:39.694Z,75.10
2018-09-04T08:09:20.191Z,75.20
2018-09-04T08:12:01.509Z,76.30
2018-09-04T08:14:43.656Z,76.30
2018-09-04T08:17:24.104Z,77.10
2018-09-04T08:20:04.649Z,77.70
2018-09-04T08:22:45.282Z,77.40
2018-09-04T08:25:27.263Z,78.00
2018-09-04T08:28:09.408Z,77.80
2018-09-04T08:30:49.911Z,78.30
2018-09-04T08:33:30.490Z,77.20
2018-09-04T08:36:13.033Z,76.20
2018-09-04T08:38:53.574Z,76.00
2018-09-04T08:41:34.049Z,76.60
2018-09-04T08:44:14.571Z,76.00
2018-09-04T08:46:55.017Z,76.70
2018-09-04T08:49:35.459Z,76.50
2018-09-04T08:52:16.041Z,76.60
2018-09-04T08:54:56.559Z,76.60
2018-09-04T08:57:38.619Z,76.80
2018-09-04T09:00:19.103Z,77.10
2018-09-04T09:02:59.541Z,78.10
2018-09-04T09:05:42.584Z,78.30
2018-09-04T09:08:23.113Z,78.30
2018-09-04T09:11:03.948Z,79.00
2018-09-04T09:13:44.567Z,79.40
2018-09-04T09:16:24.916Z,80.20
2018-09-04T09:19:05.856Z,80.40
2018-09-04T09:21:46.293Z,80.40
2018-09-04T09:24:26.764Z,80.20
2018-09-04T09:27:08.760Z,80.80
2018-09-04T09:29:49.757Z,81.40
2018-09-04T09:32:30.164Z,81.60
2018-09-04T09:35:12.597Z,81.70
2018-09-04T09:37:53.300Z,82.10
2018-09-04T09:40:33.860Z,82.30
2018-09-04T09:43:14.480Z,83.20
2018-09-04T09:45:54.990Z,85.10
2018-09-04T09:48:41.276Z,85.00
2018-09-04T09:51:21.724Z,85.00
2018-09-04T09:54:02.577Z,86.00
2018-09-04T09:56:44.199Z,85.70
2018-09-04T09:59:24.605Z,86.60
2018-09-04T10:02:08.888Z,88.20
2018-09-04T10:04:49.984Z,89.10
2018-09-04T10:07:30.603Z,89.50
2018-09-04T10:10:12.938Z,90.00
2018-09-04T10:12:53.309Z,90.20
2018-09-04T10:15:33.665Z,90.60
2018-09-04T10:18:14.187Z,90.70
2018-09-04T10:20:54.811Z,90.80
2018-09-04T10:23:36.369Z,91.10
2018-09-04T10:26:16.986Z,91.00
2018-09-04T10:28:57.454Z,91.00
2018-09-04T10:31:39.259Z,91.30
2018-09-04T10:34:19.656Z,91.50
2018-09-04T10:37:08.272Z,91.20
2018-09-04T10:39:53.882Z,91.10
2018-09-04T10:42:34.438Z,91.20
2018-09-04T10:45:20.140Z,91.20
2018-09-04T10:48:01.185Z,91.10
2018-09-04T10:50:43.946Z,91.30
2018-09-04T10:53:24.445Z,91.10
2018-09-04T10:56:05.040Z,90.80
2018-09-04T10:58:45.585Z,91.00
2018-09-04T11:01:26.115Z,91.10
2018-09-04T11:04:08.404Z,91.20
2018-09-04T11:06:49.728Z,91.10
2018-09-04T11:09:30.451Z,91.20
2018-09-04T11:12:12.356Z,91.20
2018-09-04T11:14:52.853Z,91.00
2018-09-04T11:17:33.271Z,90.80
2018-09-04T11:20:14.845Z,90.90
2018-09-04T11:22:55.371Z,90.90
2018-09-04T11:25:35.779Z,90.50
2018-09-04T11:28:16.216Z,90.30
2018-09-04T11:30:56.834Z,90.40
2018-09-04T11:33:38.185Z,89.90
2018-09-04T11:36:18.798Z,88.50
2018-09-04T11:38:59.436Z,88.20
2018-09-04T11:41:42.774Z,87.90
2018-09-04T11:44:23.383Z,87.80
2018-09-04T11:47:03.931Z,87.60
2018-09-04T11:49:44.582Z,87.50
2018-09-04T11:52:25.380Z,87.80
2018-09-04T11:55:06.138Z,87.90
2018-09-04T11:57:46.532Z,87.50
2018-09-04T12:00:30.947Z,86.90
2018-09-04T12:03:14.025Z,87.20
2018-09-04T12:05:54.616Z,87.40
2018-09-04T12:08:35.366Z,87.90
2018-09-04T12:11:16.101Z,89.20
2018-09-04T12:13:56.469Z,89.30
2018-09-04T12:16:38.253Z,89.80
2018-09-04T12:19:18.844Z,89.80
2018-09-04T12:21:59.275Z,90.00
2018-09-04T12:24:42.750Z,90.20
2018-09-04T12:27:23.233Z,90.30
2018-09-04T12:30:03.934Z,90.50
2018-09-04T12:32:44.449Z,90.40
2018-09-04T12:35:24.979Z,90.40
2018-09-04T12:38:08.409Z,90.40
2018-09-04T12:40:49.551Z,90.50
2018-09-04T12:46:29.517Z,90.70
2018-09-04T12:49:11.992Z,90.60
2018-09-04T12:51:52.509Z,90.50
2018-09-04T12:54:33.113Z,90.10
2018-09-04T12:57:13.818Z,90.10
2018-09-04T12:59:54.410Z,89.80
2018-09-04T13:02:34.845Z,90.10
2018-09-04T13:05:15.637Z,90.20
2018-09-04T13:07:56.122Z,90.00
2018-09-04T13:10:37.975Z,90.00
2018-09-04T13:13:18.491Z,90.50
2018-09-04T13:16:00.669Z,90.30
2018-09-04T13:18:43.144Z,90.20
2018-09-04T13:21:23.949Z,90.30
2018-09-04T13:24:04.536Z,90.40
2018-09-04T13:26:45.113Z,90.40
2018-09-04T13:29:25.624Z,90.80
2018-09-04T13:32:06.192Z,90.60
2018-09-04T13:34:46.805Z,90.50
2018-09-04T13:37:27.427Z,90.20
2018-09-04T13:40:09.371Z,90.40
2018-09-04T13:42:49.903Z,90.20
2018-09-04T13:45:30.497Z,90.10
2018-09-04T13:48:12.789Z,90.10
2018-09-04T14:07:11.525Z,89.90
2018-09-04T14:09:52.056Z,90.10
2018-09-04T14:12:32.687Z,89.80
2018-09-04T14:15:17.044Z,89.40
2018-09-04T14:17:57.614Z,89.70
2018-09-04T14:20:38.101Z,90.00
2018-09-04T14:23:18.739Z,90.10
2018-09-04T14:25:59.293Z,89.80
2018-09-04T14:28:41.577Z,90.00
2018-09-04T14:31:21.940Z,89.40
2018-09-04T14:34:02.507Z,89.40
2018-09-04T14:36:45.621Z,88.80
2018-09-04T14:39:26.162Z,88.50
2018-09-04T14:42:06.931Z,88.20
2018-09-04T14:44:55.997Z,87.60
2018-09-04T14:47:36.519Z,87.40
2018-09-04T14:50:18.082Z,87.60
2018-09-04T14:52:58.684Z,87.70
2018-09-04T14:55:39.405Z,87.80
2018-09-04T14:58:19.912Z,88.10
2018-09-04T15:01:00.549Z,88.70
2018-09-04T15:03:42.179Z,89.50
2018-09-04T15:06:23.767Z,87.90
2018-09-04T15:09:05.196Z,88.30
2018-09-04T15:11:46.971Z,88.90
2018-09-04T15:14:51.106Z,88.50
2018-09-04T15:17:31.869Z,88.70
2018-09-04T15:20:15.393Z,88.80
2018-09-04T15:22:56.112Z,88.90
2018-09-04T15:25:36.695Z,88.80
2018-09-04T15:28:17.205Z,88.40
2018-09-04T15:30:57.584Z,88.40
2018-09-04T15:33:37.991Z,88.60
2018-09-04T15:36:18.546Z,89.80
2018-09-04T15:38:59.251Z,88.90
2018-09-04T15:41:41.116Z,88.70
2018-09-04T15:44:22.235Z,88.70
2018-09-04T15:47:02.664Z,88.70
2018-09-04T15:49:47.388Z,89.00
2018-09-04T15:52:28.072Z,89.30
2018-09-04T15:55:08.673Z,89.80
2018-09-04T15:57:49.595Z,89.80
2018-09-04T16:00:30.149Z,89.80
2018-09-04T16:03:11.673Z,89.60
2018-09-04T16:05:52.173Z,89.50
2018-09-04T16:08:32.729Z,89.20
2018-09-04T16:11:15.441Z,89.60
2018-09-04T16:13:55.910Z,90.00
2018-09-04T16:16:36.556Z,90.10
2018-09-04T16:19:17.218Z,90.20
2018-09-04T16:21:57.855Z,90.20
2018-09-04T16:24:41.727Z,90.30
2018-09-04T16:27:22.144Z,90.20
2018-09-04T16:30:02.722Z,90.30
2018-09-04T16:32:45.498Z,90.40
2018-09-04T16:35:26.091Z,90.40
2018-09-04T16:38:07.056Z,90.90
2018-09-04T16:40:47.684Z,90.50
2018-09-04T16:43:28.292Z,90.40
2018-09-04T16:46:16.512Z,90.50
2018-09-04T16:48:57.116Z,90.50
2018-09-04T16:51:37.713Z,90.40
2018-09-04T16:54:18.277Z,90.30
2018-09-04T16:56:58.999Z,90.30
2018-09-04T16:59:39.576Z,90.30
2018-09-04T17:02:21.024Z,90.40
2018-09-04T17:05:01.668Z,90.40
2018-09-04T17:07:44.811Z,90.30
2018-09-04T17:10:25.359Z,90.20
2018-09-04T17:13:05.931Z,90.30
2018-09-04T17:15:47.912Z,90.50
2018-09-04T17:18:32.645Z,91.00
2018-09-04T17:21:15.915Z,90.40
2018-09-04T17:23:57.313Z,90.50
2018-09-04T17:26:37.896Z,90.40
2018-09-04T17:29:20.177Z,90.50
2018-09-04T17:32:00.849Z,90.70
2018-09-04T17:34:42.128Z,90.60
2018-09-04T17:37:23.580Z,90.60
2018-09-04T17:40:04.687Z,90.80
2018-09-04T17:42:48.242Z,90.80
2018-09-04T17:45:29.581Z,90.80
2018-09-04T17:48:10.177Z,90.90
2018-09-04T17:50:50.915Z,91.40
2018-09-04T17:53:32.037Z,91.60
2018-09-04T17:56:15.488Z,92.10
2018-09-04T17:58:56.947Z,93.10
2018-09-04T18:01:37.432Z,92.60
2018-09-04T18:04:18.626Z,90.70
2018-09-04T18:06:59.467Z,91.10
2018-09-04T18:09:40.529Z,91.20
2018-09-04T18:12:21.149Z,91.60
2018-09-04T18:15:01.785Z,91.90
2018-09-04T18:17:43.367Z,92.00
2018-09-04T18:20:24.031Z,92.20
2018-09-04T18:23:04.655Z,92.00
2018-09-04T18:25:46.437Z,92.30
2018-09-04T18:28:27.371Z,92.40
2018-09-04T18:31:17.849Z,92.70
2018-09-04T18:33:58.247Z,92.70
2018-09-04T18:36:38.868Z,92.90
2018-09-04T18:39:19.331Z,92.90
2018-09-04T18:41:59.980Z,93.10
2018-09-04T18:44:40.440Z,92.80
2018-09-04T18:47:21.512Z,92.80
2018-09-04T18:50:02.325Z,92.50
2018-09-04T18:52:43.830Z,92.70
2018-09-04T18:55:24.914Z,92.70
2018-09-04T18:58:06.088Z,92.50
2018-09-04T19:00:48.164Z,92.40
2018-09-04T19:03:28.998Z,92.20
2018-09-04T19:06:09.553Z,92.40
2018-09-04T19:08:50.231Z,92.50
2018-09-04T19:11:31.196Z,92.80
2018-09-04T19:14:12.859Z,93.00
2018-09-04T19:16:53.702Z,93.50
2018-09-04T19:20:23.091Z,93.50
2018-09-04T19:23:03.784Z,93.00
2018-09-04T19:25:46.905Z,93.50
2018-09-04T19:28:27.504Z,93.80
2018-09-04T19:31:08.076Z,94.40
2018-09-04T19:33:48.939Z,93.40
2018-09-04T19:36:29.536Z,93.70
2018-09-04T19:39:10.696Z,93.60
2018-09-04T19:41:51.155Z,93.30
2018-09-04T19:44:31.777Z,93.40
2018-09-04T19:47:13.368Z,93.40
2018-09-04T19:49:54.765Z,93.40
2018-09-04T19:52:35.304Z,93.40
2018-09-04T19:55:17.575Z,93.40
2018-09-04T19:57:58.144Z,93.70
2018-09-04T20:00:38.705Z,93.80
2018-09-04T20:03:19.338Z,94.00
2018-09-04T20:05:59.928Z,94.10
2018-09-04T20:08:40.604Z,93.80
2018-09-04T20:11:21.188Z,93.50
2018-09-04T20:14:03.844Z,93.10
2018-09-04T20:16:46.015Z,93.10
2018-09-04T20:19:26.508Z,93.70
2018-09-04T20:22:08.858Z,93.80
2018-09-04T20:24:49.908Z,93.80
2018-09-04T20:27:30.860Z,93.90
2018-09-04T20:30:11.517Z,94.00
2018-09-04T20:32:52.904Z,94.20
2018-09-04T20:35:34.753Z,94.30
2018-09-04T20:38:18.035Z,94.30
2018-09-04T20:40:58.928Z,94.00
2018-09-04T20:43:39.643Z,94.40
2018-09-04T20:46:20.201Z,94.00
2018-09-04T20:49:00.986Z,94.40
2018-09-04T20:51:41.788Z,94.30
2018-09-04T20:54:22.609Z,94.40
2018-09-04T20:57:27.766Z,94.90
2018-09-04T21:00:26.742Z,94.50
2018-09-04T21:03:24.289Z,94.30
2018-09-04T21:06:24.200Z,94.40
2018-09-04T21:09:16.925Z,94.70
2018-09-04T21:11:57.363Z,94.80
2018-09-04T21:14:38.020Z,95.10
2018-09-04T21:17:22.019Z,94.70
2018-09-04T21:20:02.797Z,94.60
2018-09-04T21:22:44.780Z,94.70
2018-09-04T21:25:25.984Z,94.90
2018-09-04T21:28:06.956Z,94.90
2018-09-04T21:30:48.966Z,94.80
2018-09-04T21:33:29.760Z,94.90
2018-09-04T21:36:10.453Z,95.00
2018-09-04T21:38:51.119Z,95.00
2018-09-04T21:41:31.797Z,94.80
2018-09-04T21:44:12.497Z,94.70
2018-09-04T21:46:53.099Z,94.90
2018-09-04T21:49:33.837Z,95.00
2018-09-04T21:52:15.721Z,95.10
2018-09-04T21:54:56.283Z,95.10
2018-09-04T21:57:36.902Z,95.00
2018-09-04T22:00:24.020Z,94.90
2018-09-04T22:03:04.732Z,95.10
2018-09-04T22:05:47.740Z,95.20
2018-09-04T22:08:28.195Z,95.50
2018-09-04T22:11:08.872Z,95.30
2018-09-04T22:13:50.402Z,95.20
2018-09-04T22:16:31.062Z,95.20
2018-09-04T22:19:11.764Z,95.10
2018-09-04T22:21:52.131Z,95.10
2018-09-04T22:24:36.249Z,95.40
2018-09-04T22:27:18.544Z,95.20
2018-09-04T22:29:59.683Z,95.20
2018-09-04T22:32:40.459Z,95.30
2018-09-04T22:35:21.068Z,95.30
2018-09-04T22:38:02.141Z,95.40
2018-09-04T22:40:42.597Z,95.60
2018-09-04T22:43:53.608Z,95.50
2018-09-04T22:46:34.015Z,95.40
2018-09-04T22:49:15.641Z,95.10
2018-09-04T22:51:59.995Z,95.20
2018-09-04T22:54:40.679Z,95.20
2018-09-04T22:57:21.303Z,95.40
2018-09-04T23:00:01.904Z,95.70
2018-09-04T23:02:42.662Z,95.70
2018-09-04T23:05:23.199Z,95.20
2018-09-04T23:08:03.777Z,95.10
2018-09-04T23:10:45.681Z,95.10
2018-09-04T23:13:26.101Z,95.30
2018-09-04T23:16:06.999Z,95.70
2018-09-04T23:18:48.894Z,95.90
2018-09-04T23:21:33.666Z,95.90
2018-09-04T23:24:14.666Z,95.90
2018-09-04T23:26:55.327Z,95.80
2018-09-04T23:29:35.945Z,95.80
2018-09-04T23:32:19.126Z,95.90
2018-09-04T23:34:59.732Z,95.80
2018-09-04T23:37:40.351Z,95.60
2018-09-04T23:40:21.040Z,95.80
2018-09-04T23:43:01.557Z,95.80
2018-09-04T23:45:42.446Z,95.80
2018-09-04T23:48:23.114Z,95.90
2018-09-04T23:51:04.216Z,95.80
2018-09-04T23:53:45.695Z,95.90
2018-09-04T23:56:26.452Z,96.00
2018-09-04T23:59:06.885Z,96.00
